Time;durP1;ratioP1;P1;durP2;ratioP2;P2;SDS_P1;SDS_P2;PMS_P1;PMS_P2;Temp;Humidity;BMP_temperature;BMP_pressure;BME280_temperature;BME280_humidity;BME280_pressure;Samples;Min_cycle;Max_cycle;Signal;HPM_P1;HPM_P2
2022/07/29 00:01:22;;;;;;;3.60;2.80;;;;;;;;;;10453057;28;20103;-51
2022/07/29 00:06:23;;;;;;;5.00;2.30;;;;;;;;;;10450301;28;20223;-54
2022/07/29 00:11:23;;;;;;;5.35;2.50;;;;;;;;;;10452231;28;20044;-52
2022/07/29 00:16:24;;;;;;;7.88;2.75;;;;;;;;;;10450597;28;20029;-57
2022/07/29 00:21:24;;;;;;;3.60;2.78;;;;;;;;;;10452370;28;20031;-56
2022/07/29 00:26:27;;;;;;;7.10;2.63;;;;;;;;;;10450452;28;20052;-55
2022/07/29 00:31:28;;;;;;;4.25;2.50;;;;;;;;;;10443630;28;20032;-56
2022/07/29 00:36:28;;;;;;;4.43;2.38;;;;;;;;;;10447519;28;20032;-53
2022/07/29 00:41:29;;;;;;;4.50;2.35;;;;;;;;;;10437703;28;20029;-56
2022/07/29 00:46:30;;;;;;;3.20;2.63;;;;;;;;;;10436899;28;20064;-54
2022/07/29 00:51:31;;;;;;;2.90;1.98;;;;;;;;;;10439749;28;20522;-54
2022/07/29 00:56:33;;;;;;;3.90;2.30;;;;;;;;;;10437501;28;20485;-51
2022/07/29 01:01:33;;;;;;;2.78;2.28;;;;;;;;;;10451071;28;20061;-49
2022/07/29 01:06:34;;;;;;;9.98;2.30;;;;;;;;;;10429770;28;20033;-56
2022/07/29 01:11:35;;;;;;;2.00;1.83;;;;;;;;;;10422382;28;20112;-56
2022/07/29 01:17:17;;;;;;;3.22;2.40;;;;;;;;;;10446989;28;20104;-58
2022/07/29 01:22:33;;;;;;;3.83;2.25;;;;;;;;;;10439489;28;20119;-57
2022/07/29 01:27:55;;;;;;;6.07;2.05;;;;;;;;;;10428138;28;20457;-56
2022/07/29 01:33:07;;;;;;;2.28;1.90;;;;;;;;;;10449323;28;20029;-55
2022/07/29 01:38:17;;;;;;;2.55;2.13;;;;;;;;;;10446024;28;20083;-56
2022/07/29 01:43:25;;;;;;;2.20;1.92;;;;;;;;;;10430156;28;20116;-55
2022/07/29 01:48:47;;;;;;;2.10;1.90;;;;;;;;;;10432347;28;20456;-55
2022/07/29 01:53:56;;;;;;;4.45;1.95;;;;;;;;;;10419561;28;20148;-56
2022/07/29 01:58:58;;;;;;;2.95;2.10;;;;;;;;;;10412904;28;20017;-56
2022/07/29 02:04:02;;;;;;;3.67;1.80;;;;;;;;;;10426154;28;20098;-57
2022/07/29 02:09:04;;;;;;;2.70;1.75;;;;;;;;;;10431334;28;20028;-57
2022/07/29 02:14:06;;;;;;;2.97;1.85;;;;;;;;;;10441489;28;20388;-57
2022/07/29 02:19:09;;;;;;;2.15;1.88;;;;;;;;;;10430635;28;20013;-57
2022/07/29 02:24:12;;;;;;;4.93;1.70;;;;;;;;;;10447437;28;20049;-54
2022/07/29 02:29:14;;;;;;;2.65;1.98;;;;;;;;;;10444408;28;21399;-53
2022/07/29 02:34:16;;;;;;;5.13;2.10;;;;;;;;;;10459951;28;20029;-56
2022/07/29 02:39:17;;;;;;;3.17;1.80;;;;;;;;;;10461621;28;20025;-54
2022/07/29 02:44:23;;;;;;;3.25;1.80;;;;;;;;;;10442104;28;20032;-52
2022/07/29 03:16:43;;;;;;;1.63;1.52;;;;;;;;;;10448435;27;20638;-43
2022/07/29 03:21:44;;;;;;;2.13;1.55;;;;;;;;;;10441077;28;20041;-43
2022/07/29 03:26:44;;;;;;;1.30;1.20;;;;;;;;;;10437926;28;20048;-43
2022/07/29 03:31:45;;;;;;;1.70;1.50;;;;;;;;;;10411570;28;20021;-44
2022/07/29 03:36:47;;;;;;;2.45;1.75;;;;;;;;;;10416769;28;20025;-43
2022/07/29 03:41:52;;;;;;;1.67;1.40;;;;;;;;;;10438650;28;20415;-44
2022/07/29 03:46:55;;;;;;;1.60;1.50;;;;;;;;;;10424149;28;20116;-43
2022/07/29 03:51:56;;;;;;;1.50;1.40;;;;;;;;;;10408559;28;20029;-43
2022/07/29 03:57:00;;;;;;;1.63;1.52;;;;;;;;;;10438822;28;20423;-43
2022/07/29 04:02:04;;;;;;;1.60;1.38;;;;;;;;;;10426725;28;20427;-43
2022/07/29 04:07:04;;;;;;;1.40;1.30;;;;;;;;;;10439688;28;20037;-43
2022/07/29 04:12:05;;;;;;;1.35;1.25;;;;;;;;;;10440394;28;20061;-43
2022/07/29 04:17:06;;;;;;;1.83;1.33;;;;;;;;;;10413867;28;20108;-43
2022/07/29 04:22:07;;;;;;;3.42;1.50;;;;;;;;;;10412268;28;20033;-43
2022/07/29 04:27:07;;;;;;;4.45;1.60;;;;;;;;;;10411254;28;20021;-44
2022/07/29 04:32:08;;;;;;;1.38;1.27;;;;;;;;;;10412261;28;20045;-44
2022/07/29 04:37:08;;;;;;;2.55;1.23;;;;;;;;;;10411117;28;20037;-44
2022/07/29 04:42:09;;;;;;;1.42;1.15;;;;;;;;;;10411350;28;20112;-44
2022/07/29 04:47:09;;;;;;;3.00;1.20;;;;;;;;;;10410556;28;20444;-50
2022/07/29 04:52:10;;;;;;;1.58;1.48;;;;;;;;;;10411117;28;20041;-44
2022/07/29 04:57:11;;;;;;;1.30;1.20;;;;;;;;;;10399957;28;20018;-44
2022/07/29 05:02:11;;;;;;;4.88;1.40;;;;;;;;;;10410145;28;20108;-44
2022/07/29 05:07:12;;;;;;;2.10;1.50;;;;;;;;;;10413905;28;20040;-43
2022/07/29 05:12:12;;;;;;;4.80;1.58;;;;;;;;;;10409981;28;20045;-48
2022/07/29 05:17:13;;;;;;;2.80;1.40;;;;;;;;;;10409132;28;20033;-44
2022/07/29 05:22:13;;;;;;;8.20;1.35;;;;;;;;;;10410380;28;20037;-43
2022/07/29 05:27:14;;;;;;;1.90;1.63;;;;;;;;;;10405907;28;20025;-44
2022/07/29 05:32:15;;;;;;;4.10;1.85;;;;;;;;;;10407796;28;20044;-44
2022/07/29 05:37:15;;;;;;;3.78;1.83;;;;;;;;;;10409223;28;20025;-44
2022/07/29 05:42:16;;;;;;;6.38;2.20;;;;;;;;;;10405572;28;20026;-43
2022/07/29 05:47:17;;;;;;;2.78;2.10;;;;;;;;;;10400041;28;20061;-44
2022/07/29 05:52:18;;;;;;;3.10;2.05;;;;;;;;;;10396466;28;20057;-50
2022/07/29 05:57:23;;;;;;;10.75;2.45;;;;;;;;;;10405987;28;20108;-45
2022/07/29 06:02:24;;;;;;;11.95;2.60;;;;;;;;;;10397300;28;20040;-45
2022/07/29 06:07:24;;;;;;;12.93;2.78;;;;;;;;;;10406228;28;20048;-46
2022/07/29 06:12:26;;;;;;;7.32;2.47;;;;;;;;;;10407199;28;20045;-46
2022/07/29 06:17:26;;;;;;;7.97;2.42;;;;;;;;;;10393576;28;20083;-46
2022/07/29 06:22:27;;;;;;;3.55;2.47;;;;;;;;;;10407111;28;20546;-51
2022/07/29 06:27:27;;;;;;;4.28;2.70;;;;;;;;;;10406010;28;20087;-51
2022/07/29 06:32:28;;;;;;;3.60;2.50;;;;;;;;;;10407336;28;20534;-47
2022/07/29 06:37:29;;;;;;;7.55;2.92;;;;;;;;;;10407597;28;20025;-53
2022/07/29 06:42:29;;;;;;;7.50;2.42;;;;;;;;;;10394028;28;20022;-51
2022/07/29 06:47:30;;;;;;;5.63;2.60;;;;;;;;;;10390203;28;20029;-52
2022/07/29 06:52:30;;;;;;;4.43;2.72;;;;;;;;;;10405060;28;20034;-49
2022/07/29 06:57:31;;;;;;;5.95;2.50;;;;;;;;;;10406229;28;20037;-50
2022/07/29 07:02:31;;;;;;;2.47;2.13;;;;;;;;;;10406384;28;20060;-47
2022/07/29 07:07:32;;;;;;;4.47;2.50;;;;;;;;;;10406193;28;20495;-48
2022/07/29 07:12:33;;;;;;;4.63;2.40;;;;;;;;;;10400072;28;20404;-45
2022/07/29 07:17:33;;;;;;;3.80;2.50;;;;;;;;;;10405382;28;20052;-50
2022/07/29 07:22:34;;;;;;;3.20;2.33;;;;;;;;;;10406262;28;20042;-50
2022/07/29 07:27:34;;;;;;;3.85;2.38;;;;;;;;;;10406159;28;20025;-46
2022/07/29 07:32:35;;;;;;;3.13;2.30;;;;;;;;;;10405516;28;20448;-51
2022/07/29 07:37:37;;;;;;;3.83;2.20;;;;;;;;;;10391583;28;20048;-46
2022/07/29 07:42:40;;;;;;;5.72;2.55;;;;;;;;;;10397818;28;20045;-52
2022/07/29 07:47:41;;;;;;;4.88;2.30;;;;;;;;;;10405857;28;20021;-50
2022/07/29 07:52:54;;;;;;;4.43;2.60;;;;;;;;;;10409359;28;20060;-49
2022/07/29 07:57:55;;;;;;;4.28;2.70;;;;;;;;;;10412909;28;20048;-51
2022/07/29 08:02:56;;;;;;;4.00;2.80;;;;;;;;;;10408810;28;20083;-46
2022/07/29 08:07:56;;;;;;;3.40;2.38;;;;;;;;;;10403092;28;20424;-46
2022/07/29 08:12:57;;;;;;;5.05;2.75;;;;;;;;;;10400162;28;20393;-49
2022/07/29 08:17:58;;;;;;;6.43;2.65;;;;;;;;;;10403727;28;20392;-48
2022/07/29 08:22:59;;;;;;;7.45;2.65;;;;;;;;;;10410587;28;20048;-46
2022/07/29 08:27:59;;;;;;;5.55;2.65;;;;;;;;;;10402511;28;20866;-49
2022/07/29 08:33:00;;;;;;;5.38;2.55;;;;;;;;;;10411411;28;20033;-47
2022/07/29 08:38:03;;;;;;;6.13;2.60;;;;;;;;;;10410278;28;20025;-46
2022/07/29 08:43:08;;;;;;;5.25;2.58;;;;;;;;;;10411070;28;20034;-46
2022/07/29 08:48:08;;;;;;;3.30;2.22;;;;;;;;;;10418607;28;20456;-46
2022/07/29 08:53:15;;;;;;;4.22;2.90;;;;;;;;;;10410123;28;20026;-48
2022/07/29 08:58:17;;;;;;;8.43;2.70;;;;;;;;;;10404318;28;20108;-50
2022/07/29 09:03:24;;;;;;;4.03;2.95;;;;;;;;;;10410289;28;20033;-45
2022/07/29 09:08:25;;;;;;;4.60;2.83;;;;;;;;;;10396150;28;20032;-46
2022/07/29 09:13:26;;;;;;;3.70;2.72;;;;;;;;;;10410012;28;20041;-45
2022/07/29 09:18:34;;;;;;;4.53;2.83;;;;;;;;;;10406752;28;20037;-48
2022/07/29 09:23:35;;;;;;;3.53;3.03;;;;;;;;;;10409308;28;20060;-48
2022/07/29 09:28:41;;;;;;;5.97;2.88;;;;;;;;;;10402233;28;20431;-46
2022/07/29 09:33:42;;;;;;;5.85;3.10;;;;;;;;;;10409191;28;20056;-45
2022/07/29 09:38:56;;;;;;;3.53;3.00;;;;;;;;;;10407692;28;20377;-46
2022/07/29 09:43:58;;;;;;;3.42;2.85;;;;;;;;;;10388705;28;20071;-45
2022/07/29 09:49:10;;;;;;;4.70;2.72;;;;;;;;;;10399479;28;20039;-46
2022/07/29 09:54:27;;;;;;;4.70;3.10;;;;;;;;;;10406147;28;20032;-45
2022/07/29 09:59:28;;;;;;;3.75;2.60;;;;;;;;;;10408206;28;20022;-46
2022/07/29 10:04:42;;;;;;;4.47;2.63;;;;;;;;;;10394488;28;20048;-52
2022/07/29 10:09:54;;;;;;;4.25;2.63;;;;;;;;;;10391020;28;20033;-50
2022/07/29 10:14:55;;;;;;;3.35;2.83;;;;;;;;;;10406613;28;20167;-46
2022/07/29 10:19:56;;;;;;;4.38;2.75;;;;;;;;;;10397853;28;20104;-50
2022/07/29 10:24:56;;;;;;;3.35;2.35;;;;;;;;;;10369264;28;20079;-48
2022/07/29 10:29:57;;;;;;;4.60;2.38;;;;;;;;;;10379053;28;20060;-49
2022/07/29 10:35:46;;;;;;;3.40;2.75;;;;;;;;;;10383649;28;20033;-48
2022/07/29 10:41:27;;;;;;;5.15;3.05;;;;;;;;;;10388365;28;20152;-46
2022/07/29 10:46:28;;;;;;;4.03;2.72;;;;;;;;;;10402072;28;20495;-47
2022/07/29 10:51:59;;;;;;;4.72;2.50;;;;;;;;;;10395642;28;20026;-45
2022/07/29 10:57:26;;;;;;;5.60;2.55;;;;;;;;;;10398038;28;20388;-46
2022/07/29 11:02:56;;;;;;;6.57;2.57;;;;;;;;;;10401789;28;20029;-47
2022/07/29 11:08:12;;;;;;;4.73;2.97;;;;;;;;;;10388642;28;20049;-46
2022/07/29 11:13:12;;;;;;;4.80;2.78;;;;;;;;;;10398519;28;20197;-45
2022/07/29 11:18:13;;;;;;;5.03;2.70;;;;;;;;;;10405656;28;20049;-48
2022/07/29 11:23:29;;;;;;;6.10;3.00;;;;;;;;;;10405958;28;20029;-51
2022/07/29 11:28:29;;;;;;;3.22;2.88;;;;;;;;;;10413698;28;20116;-46
2022/07/29 11:33:31;;;;;;;4.28;2.90;;;;;;;;;;10413875;28;20116;-47
2022/07/29 11:38:33;;;;;;;3.58;2.72;;;;;;;;;;10411511;28;20041;-51
2022/07/29 11:43:57;;;;;;;4.50;2.90;;;;;;;;;;10413035;28;20041;-45
2022/07/29 11:48:58;;;;;;;5.32;2.78;;;;;;;;;;10412068;28;20029;-45
2022/07/29 11:53:59;;;;;;;3.78;2.90;;;;;;;;;;10412422;28;20380;-45
2022/07/29 11:59:06;;;;;;;4.35;2.95;;;;;;;;;;10395081;28;20040;-45
2022/07/29 12:04:07;;;;;;;7.53;3.30;;;;;;;;;;10411357;28;20040;-55
2022/07/29 12:09:08;;;;;;;4.07;2.90;;;;;;;;;;10410156;28;20380;-48
2022/07/29 12:14:09;;;;;;;8.10;3.20;;;;;;;;;;10411945;28;20172;-46
2022/07/29 12:19:09;;;;;;;8.75;2.97;;;;;;;;;;10410018;28;20168;-53
2022/07/29 12:24:10;;;;;;;6.43;3.38;;;;;;;;;;10411368;28;20280;-45
2022/07/29 12:29:17;;;;;;;8.93;3.47;;;;;;;;;;10409038;28;20041;-46
2022/07/29 12:34:17;;;;;;;7.07;3.23;;;;;;;;;;10407602;28;20068;-46
2022/07/29 12:39:19;;;;;;;5.90;3.05;;;;;;;;;;10409386;28;20117;-46
2022/07/29 12:44:19;;;;;;;5.60;3.20;;;;;;;;;;10403351;28;20432;-45
2022/07/29 12:49:23;;;;;;;4.70;3.03;;;;;;;;;;10406444;28;20037;-46
2022/07/29 12:54:23;;;;;;;9.45;3.05;;;;;;;;;;10407918;28;20492;-46
2022/07/29 12:59:24;;;;;;;3.92;2.80;;;;;;;;;;10409945;28;20021;-46
2022/07/29 13:04:28;;;;;;;5.57;3.10;;;;;;;;;;10411585;28;20075;-46
2022/07/29 13:09:45;;;;;;;5.50;3.00;;;;;;;;;;10409064;28;20044;-48
2022/07/29 13:14:47;;;;;;;7.35;2.90;;;;;;;;;;10408720;28;20072;-47
2022/07/29 13:20:06;;;;;;;4.20;3.00;;;;;;;;;;10409132;28;20028;-46
2022/07/29 13:25:07;;;;;;;6.30;2.80;;;;;;;;;;10408852;28;20029;-45
2022/07/29 13:30:09;;;;;;;5.72;2.70;;;;;;;;;;10406335;28;20025;-47
2022/07/29 13:35:10;;;;;;;5.30;3.13;;;;;;;;;;10407016;28;20029;-53
2022/07/29 13:40:12;;;;;;;7.85;3.58;;;;;;;;;;10407757;28;20037;-47
2022/07/29 13:45:12;;;;;;;9.98;3.53;;;;;;;;;;10406920;28;20397;-46
2022/07/29 13:50:13;;;;;;;10.00;3.50;;;;;;;;;;10403879;28;20029;-45
2022/07/29 13:55:14;;;;;;;12.93;3.58;;;;;;;;;;10399773;28;20022;-46
2022/07/29 14:00:15;;;;;;;7.70;3.40;;;;;;;;;;10408111;28;20385;-49
2022/07/29 14:05:16;;;;;;;11.30;2.90;;;;;;;;;;10407444;28;20022;-47
2022/07/29 14:10:16;;;;;;;8.40;3.15;;;;;;;;;;10407063;28;20412;-45
2022/07/29 14:15:18;;;;;;;10.52;3.50;;;;;;;;;;10407657;28;20393;-46
2022/07/29 14:20:19;;;;;;;4.85;3.20;;;;;;;;;;10407993;28;20450;-46
2022/07/29 14:25:19;;;;;;;5.25;3.53;;;;;;;;;;10384682;28;20037;-46
2022/07/29 14:30:20;;;;;;;8.90;3.90;;;;;;;;;;10407385;28;20067;-46
2022/07/29 14:35:21;;;;;;;10.02;3.80;;;;;;;;;;10406861;28;20249;-46
2022/07/29 14:40:21;;;;;;;5.15;3.10;;;;;;;;;;10407673;28;20041;-46
2022/07/29 14:45:22;;;;;;;10.13;3.88;;;;;;;;;;10406957;28;20029;-45
2022/07/29 14:50:23;;;;;;;20.77;3.72;;;;;;;;;;10405910;28;20029;-45
2022/07/29 14:55:23;;;;;;;12.02;3.72;;;;;;;;;;10406420;28;20457;-46
2022/07/29 15:00:25;;;;;;;18.73;4.32;;;;;;;;;;10406172;28;20036;-46
2022/07/29 15:05:26;;;;;;;20.95;4.10;;;;;;;;;;10405147;28;20388;-46
2022/07/29 15:10:27;;;;;;;13.98;4.15;;;;;;;;;;10416616;28;20091;-46
2022/07/29 15:15:29;;;;;;;14.45;4.20;;;;;;;;;;10399695;28;20042;-46
2022/07/29 15:20:30;;;;;;;12.43;3.85;;;;;;;;;;10398880;28;20036;-46
2022/07/29 15:25:32;;;;;;;11.05;3.72;;;;;;;;;;10405559;28;20377;-46
2022/07/29 15:30:39;;;;;;;10.77;3.65;;;;;;;;;;10406143;28;20238;-46
2022/07/29 15:35:40;;;;;;;11.90;3.60;;;;;;;;;;10405626;28;20167;-53
2022/07/29 15:40:42;;;;;;;14.35;4.10;;;;;;;;;;10405999;28;20853;-46
2022/07/29 15:47:02;;;;;;;10.90;3.95;;;;;;;;;;10405171;28;20032;-47
2022/07/29 15:51:04;;;;;;;20.83;4.75;;;;;;;;;;10405094;28;20112;-46
2022/07/29 15:56:04;;;;;;;13.75;3.53;;;;;;;;;;10404246;28;20029;-45
2022/07/29 16:01:05;;;;;;;8.10;2.97;;;;;;;;;;10405132;28;20037;-45
2022/07/29 16:06:05;;;;;;;10.18;3.28;;;;;;;;;;10405759;28;20387;-45
2022/07/29 16:11:06;;;;;;;4.93;3.10;;;;;;;;;;10408768;28;20095;-46
2022/07/29 16:16:07;;;;;;;14.77;3.83;;;;;;;;;;10414695;28;20388;-52
2022/07/29 16:21:08;;;;;;;7.93;2.95;;;;;;;;;;10412475;28;20033;-53
2022/07/29 16:26:08;;;;;;;6.68;3.20;;;;;;;;;;10412189;28;20056;-59
2022/07/29 16:31:09;;;;;;;6.63;3.10;;;;;;;;;;10412330;28;20388;-49
2022/07/29 16:36:09;;;;;;;8.48;3.40;;;;;;;;;;10410321;28;20025;-50
2022/07/29 16:41:10;;;;;;;6.90;3.05;;;;;;;;;;10411819;28;20049;-60
2022/07/29 16:46:11;;;;;;;4.60;3.05;;;;;;;;;;10411065;28;20046;-56
2022/07/29 16:51:11;;;;;;;5.45;3.08;;;;;;;;;;10412128;28;20029;-46
2022/07/29 16:56:12;;;;;;;5.80;2.95;;;;;;;;;;10411289;28;20057;-46
2022/07/29 17:01:13;;;;;;;4.75;2.75;;;;;;;;;;10412161;28;20053;-45
2022/07/29 17:06:13;;;;;;;4.13;2.97;;;;;;;;;;10404536;28;20037;-45
2022/07/29 17:11:14;;;;;;;4.93;3.30;;;;;;;;;;10408772;28;20029;-45
2022/07/29 17:16:15;;;;;;;4.78;3.10;;;;;;;;;;10417727;28;20038;-45
2022/07/29 17:21:16;;;;;;;5.35;3.10;;;;;;;;;;10415205;28;20037;-46
2022/07/29 17:26:17;;;;;;;6.20;3.20;;;;;;;;;;10408224;28;20457;-45
2022/07/29 17:31:18;;;;;;;4.82;3.25;;;;;;;;;;10411448;28;20030;-45
2022/07/29 17:36:24;;;;;;;6.43;2.72;;;;;;;;;;10407826;28;20100;-45
2022/07/29 17:41:25;;;;;;;6.38;2.97;;;;;;;;;;10417074;28;20041;-57
2022/07/29 17:46:26;;;;;;;7.40;2.92;;;;;;;;;;10411162;28;20472;-54
2022/07/29 17:51:27;;;;;;;11.52;3.15;;;;;;;;;;10407026;28;20037;-60
2022/07/29 17:56:28;;;;;;;7.18;3.55;;;;;;;;;;10406280;28;20362;-60
2022/07/29 18:01:28;;;;;;;8.75;3.28;;;;;;;;;;10408154;28;20025;-46
2022/07/29 18:06:29;;;;;;;8.20;3.28;;;;;;;;;;10407426;28;20041;-45
2022/07/29 18:11:31;;;;;;;7.20;2.85;;;;;;;;;;10408141;28;20037;-45
2022/07/29 18:16:31;;;;;;;4.47;2.90;;;;;;;;;;10407128;28;20080;-45
2022/07/29 18:21:32;;;;;;;7.13;2.83;;;;;;;;;;10393473;28;20425;-45
2022/07/29 18:26:32;;;;;;;5.75;2.47;;;;;;;;;;10404547;28;20376;-45
2022/07/29 18:31:33;;;;;;;5.88;2.65;;;;;;;;;;10397364;28;20064;-45
2022/07/29 18:36:34;;;;;;;4.88;1.90;;;;;;;;;;10405253;28;20029;-45
2022/07/29 18:41:34;;;;;;;5.55;2.25;;;;;;;;;;10405732;28;20033;-46
2022/07/29 18:46:35;;;;;;;3.65;1.67;;;;;;;;;;10404533;28;20443;-46
2022/07/29 18:51:35;;;;;;;3.10;1.52;;;;;;;;;;10403742;28;20083;-46
2022/07/29 18:56:36;;;;;;;2.90;1.35;;;;;;;;;;10406059;28;20021;-46
2022/07/29 19:01:37;;;;;;;3.42;1.52;;;;;;;;;;10402792;28;20096;-48
2022/07/29 19:06:39;;;;;;;3.60;1.92;;;;;;;;;;10386073;28;20028;-46
2022/07/29 19:11:40;;;;;;;3.30;1.77;;;;;;;;;;10408745;28;20044;-46
2022/07/29 19:16:40;;;;;;;3.30;1.80;;;;;;;;;;10407092;28;20026;-50
2022/07/29 19:21:41;;;;;;;4.72;1.80;;;;;;;;;;10404361;28;20420;-47
2022/07/29 19:26:47;;;;;;;2.33;1.55;;;;;;;;;;10406653;28;20064;-46
2022/07/29 19:31:48;;;;;;;4.28;2.08;;;;;;;;;;10406330;28;20017;-48
2022/07/29 19:36:49;;;;;;;7.15;2.00;;;;;;;;;;10404796;28;20037;-47
2022/07/29 19:41:49;;;;;;;4.32;1.58;;;;;;;;;;10403019;28;20022;-46
2022/07/29 19:46:50;;;;;;;2.85;1.90;;;;;;;;;;10398072;28;20262;-46
2022/07/29 19:51:50;;;;;;;1.88;1.67;;;;;;;;;;10413977;28;20033;-52
2022/07/29 19:56:51;;;;;;;3.50;1.88;;;;;;;;;;10401793;28;20036;-47
2022/07/29 20:01:51;;;;;;;3.10;1.70;;;;;;;;;;10412508;28;20034;-46
2022/07/29 20:06:55;;;;;;;5.47;2.00;;;;;;;;;;10413128;28;20036;-49
2022/07/29 20:11:55;;;;;;;5.72;2.05;;;;;;;;;;10407380;28;20028;-47
2022/07/29 20:16:56;;;;;;;2.60;2.05;;;;;;;;;;10412999;28;20022;-46
2022/07/29 20:21:57;;;;;;;3.45;2.05;;;;;;;;;;10408136;28;20499;-46
2022/07/29 20:26:57;;;;;;;2.97;1.77;;;;;;;;;;10411932;28;20105;-46
2022/07/29 20:31:58;;;;;;;4.43;2.67;;;;;;;;;;10411012;28;20021;-46
2022/07/29 20:37:00;;;;;;;5.57;2.83;;;;;;;;;;10415354;28;20037;-46
2022/07/29 20:42:00;;;;;;;3.03;2.40;;;;;;;;;;10410609;28;20392;-46
2022/07/29 20:47:01;;;;;;;5.30;2.30;;;;;;;;;;10403324;28;20029;-47
2022/07/29 20:52:02;;;;;;;7.68;2.28;;;;;;;;;;10401762;28;20435;-46
2022/07/29 20:57:03;;;;;;;6.00;2.28;;;;;;;;;;10408669;28;20054;-45
2022/07/29 21:02:04;;;;;;;10.38;1.95;;;;;;;;;;10407117;28;20038;-43
2022/07/29 21:07:05;;;;;;;8.98;2.20;;;;;;;;;;10404563;28;20033;-45
2022/07/29 21:12:06;;;;;;;13.10;2.05;;;;;;;;;;10407148;28;20161;-45
2022/07/29 21:17:07;;;;;;;1.70;1.60;;;;;;;;;;10402959;28;20040;-45
2022/07/29 21:22:08;;;;;;;5.57;1.70;;;;;;;;;;10409391;28;20033;-45
2022/07/29 21:32:27;;;;;;;5.82;2.00;;;;;;;;;;10400785;28;20113;-45
2022/07/29 21:37:28;;;;;;;5.70;1.60;;;;;;;;;;10408647;28;20055;-45
2022/07/29 21:42:29;;;;;;;2.17;1.42;;;;;;;;;;10400598;28;20036;-46
2022/07/29 21:47:29;;;;;;;5.25;1.40;;;;;;;;;;10391467;28;20044;-47
2022/07/29 21:52:30;;;;;;;4.75;1.30;;;;;;;;;;10407261;28;20034;-47
2022/07/29 21:57:31;;;;;;;1.33;1.20;;;;;;;;;;10406038;28;20216;-45
2022/07/29 22:02:31;;;;;;;6.80;1.60;;;;;;;;;;10389021;28;20048;-45
2022/07/29 22:07:32;;;;;;;2.65;1.48;;;;;;;;;;10380117;28;20484;-45
2022/07/29 22:12:32;;;;;;;2.42;1.20;;;;;;;;;;10383612;28;20056;-45
2022/07/29 22:17:33;;;;;;;2.55;1.52;;;;;;;;;;10388653;28;20598;-45
2022/07/29 22:22:34;;;;;;;3.97;1.33;;;;;;;;;;10398118;28;20038;-45
2022/07/29 22:27:35;;;;;;;8.95;1.60;;;;;;;;;;10381530;28;20048;-45
2022/07/29 22:32:36;;;;;;;2.72;1.52;;;;;;;;;;10383363;28;20030;-46
2022/07/29 22:37:36;;;;;;;4.60;1.60;;;;;;;;;;10383602;28;20045;-45
2022/07/29 22:42:37;;;;;;;4.22;1.88;;;;;;;;;;10381931;28;20030;-45
2022/07/29 22:47:38;;;;;;;9.82;1.90;;;;;;;;;;10386623;28;20037;-44
2022/07/29 22:52:38;;;;;;;5.68;1.80;;;;;;;;;;10406931;28;20521;-44
2022/07/29 22:57:39;;;;;;;2.90;1.67;;;;;;;;;;10404541;28;20030;-44
2022/07/29 23:02:40;;;;;;;6.30;1.88;;;;;;;;;;10386730;28;22600;-44
2022/07/29 23:07:41;;;;;;;2.33;1.80;;;;;;;;;;10399887;28;20022;-44
2022/07/29 23:12:41;;;;;;;3.60;1.90;;;;;;;;;;10404334;28;20045;-44
2022/07/29 23:17:42;;;;;;;3.95;2.15;;;;;;;;;;10396869;28;20044;-45
2022/07/29 23:22:43;;;;;;;3.67;1.92;;;;;;;;;;10411595;28;20444;-45
2022/07/29 23:27:43;;;;;;;2.38;1.73;;;;;;;;;;10414688;28;20472;-45
2022/07/29 23:32:44;;;;;;;2.78;2.05;;;;;;;;;;10412444;28;20488;-45
2022/07/29 23:37:44;;;;;;;5.35;2.08;;;;;;;;;;10414180;28;20472;-45
2022/07/29 23:42:45;;;;;;;2.30;1.45;;;;;;;;;;10411340;28;20411;-45
2022/07/29 23:47:45;;;;;;;2.53;1.60;;;;;;;;;;10414625;28;20025;-45
2022/07/29 23:52:46;;;;;;;2.28;1.52;;;;;;;;;;10413752;28;20030;-45
2022/07/29 23:57:47;;;;;;;5.97;1.60;;;;;;;;;;10413163;28;20465;-45
